sensor_id;sensor_type;location;lat;lon;timestamp;pressure;altitude;pressure_sealevel;temperature;humidity
57574;BME280;63722;48.858;21.906;2023-02-17T00:01:08;99302.50;;;22.06;37.92
57574;BME280;63722;48.858;21.906;2023-02-17T00:03:34;99297.16;;;22.06;37.78
57574;BME280;63722;48.858;21.906;2023-02-17T00:06:07;99303.09;;;22.08;38.04
57574;BME280;63722;48.858;21.906;2023-02-17T00:08:34;99298.56;;;22.08;37.87
57574;BME280;63722;48.858;21.906;2023-02-17T00:11:00;99293.47;;;22.07;38.11
57574;BME280;63722;48.858;21.906;2023-02-17T00:13:25;99283.72;;;22.00;37.71
57574;BME280;63722;48.858;21.906;2023-02-17T00:15:51;99291.84;;;22.06;37.89
57574;BME280;63722;48.858;21.906;2023-02-17T00:18:17;99298.25;;;22.05;37.97
57574;BME280;63722;48.858;21.906;2023-02-17T00:20:42;99291.25;;;22.04;37.97
57574;BME280;63722;48.858;21.906;2023-02-17T00:23:08;99290.47;;;22.03;37.97
57574;BME280;63722;48.858;21.906;2023-02-17T00:25:33;99294.88;;;21.97;37.94
57574;BME280;63722;48.858;21.906;2023-02-17T00:27:58;99288.91;;;22.07;37.91
57574;BME280;63722;48.858;21.906;2023-02-17T00:30:24;99286.00;;;22.09;37.89
57574;BME280;63722;48.858;21.906;2023-02-17T00:32:49;99288.06;;;22.18;37.71
57574;BME280;63722;48.858;21.906;2023-02-17T00:35:14;99283.56;;;22.07;37.82
57574;BME280;63722;48.858;21.906;2023-02-17T00:37:40;99290.88;;;22.12;37.94
57574;BME280;63722;48.858;21.906;2023-02-17T00:40:10;99294.41;;;22.00;37.92
57574;BME280;63722;48.858;21.906;2023-02-17T00:42:35;99284.88;;;22.05;37.51
57574;BME280;63722;48.858;21.906;2023-02-17T00:45:01;99293.53;;;22.12;37.67
57574;BME280;63722;48.858;21.906;2023-02-17T00:47:26;99291.94;;;22.11;37.78
57574;BME280;63722;48.858;21.906;2023-02-17T00:49:51;99285.94;;;22.04;37.84
57574;BME280;63722;48.858;21.906;2023-02-17T00:52:17;99281.63;;;22.03;37.59
57574;BME280;63722;48.858;21.906;2023-02-17T00:54:42;99289.84;;;22.13;37.87
57574;BME280;63722;48.858;21.906;2023-02-17T00:57:08;99279.63;;;22.10;37.44
57574;BME280;63722;48.858;21.906;2023-02-17T00:59:33;99272.56;;;22.04;37.71
57574;BME280;63722;48.858;21.906;2023-02-17T01:01:58;99261.31;;;22.02;37.57
57574;BME280;63722;48.858;21.906;2023-02-17T01:04:24;99267.72;;;22.00;37.83
57574;BME280;63722;48.858;21.906;2023-02-17T01:06:49;99268.03;;;22.04;37.59
57574;BME280;63722;48.858;21.906;2023-02-17T01:09:14;99266.28;;;22.10;37.56
57574;BME280;63722;48.858;21.906;2023-02-17T01:11:40;99257.34;;;22.04;37.76
57574;BME280;63722;48.858;21.906;2023-02-17T01:14:07;99262.13;;;22.02;37.75
57574;BME280;63722;48.858;21.906;2023-02-17T01:16:35;99262.38;;;22.00;37.75
57574;BME280;63722;48.858;21.906;2023-02-17T01:19:07;99275.56;;;22.07;37.74
57574;BME280;63722;48.858;21.906;2023-02-17T01:21:34;99263.53;;;22.05;37.64
57574;BME280;63722;48.858;21.906;2023-02-17T01:24:02;99253.31;;;22.02;37.70
57574;BME280;63722;48.858;21.906;2023-02-17T01:26:30;99255.41;;;21.99;37.79
57574;BME280;63722;48.858;21.906;2023-02-17T01:28:56;99257.34;;;22.04;37.58
57574;BME280;63722;48.858;21.906;2023-02-17T01:31:23;99260.84;;;22.05;37.73
57574;BME280;63722;48.858;21.906;2023-02-17T01:33:51;99256.47;;;21.98;37.87
57574;BME280;63722;48.858;21.906;2023-02-17T01:36:18;99249.00;;;22.00;37.75
57574;BME280;63722;48.858;21.906;2023-02-17T01:38:44;99257.50;;;21.97;37.80
57574;BME280;63722;48.858;21.906;2023-02-17T01:41:12;99264.16;;;22.12;37.65
57574;BME280;63722;48.858;21.906;2023-02-17T01:43:38;99259.69;;;22.00;37.52
57574;BME280;63722;48.858;21.906;2023-02-17T01:46:05;99257.03;;;22.00;37.53
57574;BME280;63722;48.858;21.906;2023-02-17T01:48:41;99251.06;;;22.10;37.53
57574;BME280;63722;48.858;21.906;2023-02-17T01:51:24;99249.09;;;22.06;37.59
57574;BME280;63722;48.858;21.906;2023-02-17T01:54:07;99240.59;;;22.09;37.53
57574;BME280;63722;48.858;21.906;2023-02-17T01:56:36;99238.34;;;22.00;37.65
57574;BME280;63722;48.858;21.906;2023-02-17T01:59:10;99237.38;;;22.07;37.48
57574;BME280;63722;48.858;21.906;2023-02-17T02:01:38;99234.88;;;22.00;37.72
57574;BME280;63722;48.858;21.906;2023-02-17T02:04:04;99230.31;;;22.00;37.42
57574;BME280;63722;48.858;21.906;2023-02-17T02:06:32;99225.78;;;22.01;37.53
57574;BME280;63722;48.858;21.906;2023-02-17T02:09:06;99227.72;;;22.06;37.46
57574;BME280;63722;48.858;21.906;2023-02-17T02:11:32;99217.69;;;21.96;37.41
57574;BME280;63722;48.858;21.906;2023-02-17T02:13:59;99215.81;;;21.96;37.60
57574;BME280;63722;48.858;21.906;2023-02-17T02:16:53;99225.22;;;21.99;37.59
57574;BME280;63722;48.858;21.906;2023-02-17T02:31:26;99212.66;;;21.99;37.40
57574;BME280;63722;48.858;21.906;2023-02-17T02:34:21;99212.09;;;21.97;37.55
57574;BME280;63722;48.858;21.906;2023-02-17T02:41:41;99202.47;;;21.96;37.79
57574;BME280;63722;48.858;21.906;2023-02-17T02:44:09;99197.59;;;21.93;37.58
57574;BME280;63722;48.858;21.906;2023-02-17T02:46:37;99203.78;;;21.94;37.56
57574;BME280;63722;48.858;21.906;2023-02-17T02:49:03;99196.41;;;22.01;37.34
57574;BME280;63722;48.858;21.906;2023-02-17T03:05:15;99190.19;;;21.95;37.51
57574;BME280;63722;48.858;21.906;2023-02-17T03:07:49;99189.03;;;21.91;37.48
57574;BME280;63722;48.858;21.906;2023-02-17T03:10:19;99196.00;;;21.92;37.50
57574;BME280;63722;48.858;21.906;2023-02-17T03:12:44;99183.38;;;21.88;37.47
57574;BME280;63722;48.858;21.906;2023-02-17T03:15:25;99196.88;;;21.98;37.47
57574;BME280;63722;48.858;21.906;2023-02-17T03:17:55;99186.13;;;21.93;37.45
57574;BME280;63722;48.858;21.906;2023-02-17T03:20:21;99194.13;;;21.93;37.41
57574;BME280;63722;48.858;21.906;2023-02-17T03:22:47;99192.75;;;21.90;37.45
57574;BME280;63722;48.858;21.906;2023-02-17T03:25:13;99191.78;;;21.96;37.44
57574;BME280;63722;48.858;21.906;2023-02-17T03:27:39;99190.34;;;22.06;37.17
57574;BME280;63722;48.858;21.906;2023-02-17T03:30:05;99187.28;;;21.97;37.47
57574;BME280;63722;48.858;21.906;2023-02-17T03:32:31;99184.84;;;21.95;37.29
57574;BME280;63722;48.858;21.906;2023-02-17T03:34:56;99181.59;;;21.93;37.23
57574;BME280;63722;48.858;21.906;2023-02-17T03:37:21;99181.78;;;22.04;37.10
57574;BME280;63722;48.858;21.906;2023-02-17T03:39:47;99193.66;;;21.96;37.37
57574;BME280;63722;48.858;21.906;2023-02-17T03:42:12;99198.44;;;21.94;37.47
57574;BME280;63722;48.858;21.906;2023-02-17T03:44:38;99199.16;;;21.89;37.52
57574;BME280;63722;48.858;21.906;2023-02-17T03:47:03;99199.25;;;21.94;37.33
57574;BME280;63722;48.858;21.906;2023-02-17T03:49:29;99193.09;;;21.94;37.06
57574;BME280;63722;48.858;21.906;2023-02-17T03:51:54;99200.50;;;21.92;37.17
57574;BME280;63722;48.858;21.906;2023-02-17T03:54:19;99204.25;;;21.91;37.50
57574;BME280;63722;48.858;21.906;2023-02-17T03:56:45;99204.91;;;21.98;37.13
57574;BME280;63722;48.858;21.906;2023-02-17T03:59:10;99204.91;;;21.98;37.23
57574;BME280;63722;48.858;21.906;2023-02-17T04:01:36;99215.72;;;21.91;37.33
57574;BME280;63722;48.858;21.906;2023-02-17T04:04:01;99215.34;;;21.99;37.09
57574;BME280;63722;48.858;21.906;2023-02-17T04:06:27;99212.44;;;22.01;37.17
57574;BME280;63722;48.858;21.906;2023-02-17T04:08:52;99216.88;;;21.95;37.22
57574;BME280;63722;48.858;21.906;2023-02-17T04:11:18;99214.22;;;21.95;37.10
57574;BME280;63722;48.858;21.906;2023-02-17T04:13:43;99219.22;;;21.92;37.28
57574;BME280;63722;48.858;21.906;2023-02-17T04:16:09;99217.59;;;21.91;37.37
57574;BME280;63722;48.858;21.906;2023-02-17T04:18:36;99219.63;;;22.00;37.19
57574;BME280;63722;48.858;21.906;2023-02-17T04:21:01;99213.38;;;21.95;37.25
57574;BME280;63722;48.858;21.906;2023-02-17T04:23:27;99201.59;;;21.91;37.20
57574;BME280;63722;48.858;21.906;2023-02-17T04:25:53;99206.69;;;21.92;37.09
57574;BME280;63722;48.858;21.906;2023-02-17T04:28:18;99209.91;;;21.94;37.15
57574;BME280;63722;48.858;21.906;2023-02-17T04:30:46;99207.31;;;21.99;37.15
57574;BME280;63722;48.858;21.906;2023-02-17T04:33:12;99206.69;;;21.92;37.25
57574;BME280;63722;48.858;21.906;2023-02-17T04:35:38;99199.25;;;21.94;36.96
57574;BME280;63722;48.858;21.906;2023-02-17T04:38:05;99200.28;;;21.93;37.09
57574;BME280;63722;48.858;21.906;2023-02-17T04:40:30;99189.84;;;21.92;37.17
57574;BME280;63722;48.858;21.906;2023-02-17T04:42:56;99192.63;;;21.97;37.13
57574;BME280;63722;48.858;21.906;2023-02-17T04:45:21;99198.28;;;22.00;37.09
57574;BME280;63722;48.858;21.906;2023-02-17T04:47:47;99178.91;;;21.93;36.93
57574;BME280;63722;48.858;21.906;2023-02-17T04:50:12;99179.75;;;21.94;37.10
57574;BME280;63722;48.858;21.906;2023-02-17T04:52:38;99184.50;;;21.92;37.49
57574;BME280;63722;48.858;21.906;2023-02-17T04:55:04;99185.41;;;21.97;37.09
57574;BME280;63722;48.858;21.906;2023-02-17T04:57:30;99187.75;;;21.94;37.04
57574;BME280;63722;48.858;21.906;2023-02-17T04:59:55;99185.31;;;21.92;37.23
57574;BME280;63722;48.858;21.906;2023-02-17T05:02:21;99180.63;;;21.99;36.84
57574;BME280;63722;48.858;21.906;2023-02-17T05:04:46;99176.25;;;21.93;37.26
57574;BME280;63722;48.858;21.906;2023-02-17T05:07:12;99178.34;;;21.91;37.43
57574;BME280;63722;48.858;21.906;2023-02-17T05:09:38;99184.00;;;21.95;37.13
57574;BME280;63722;48.858;21.906;2023-02-17T05:12:03;99185.56;;;21.91;37.23
57574;BME280;63722;48.858;21.906;2023-02-17T05:14:30;99195.19;;;21.92;37.05
57574;BME280;63722;48.858;21.906;2023-02-17T05:16:56;99196.56;;;21.94;37.21
57574;BME280;63722;48.858;21.906;2023-02-17T05:19:21;99203.28;;;21.97;37.14
57574;BME280;63722;48.858;21.906;2023-02-17T05:21:47;99210.66;;;22.07;36.90
57574;BME280;63722;48.858;21.906;2023-02-17T05:24:12;99206.38;;;22.06;37.07
57574;BME280;63722;48.858;21.906;2023-02-17T05:26:37;99209.63;;;22.08;36.95
57574;BME280;63722;48.858;21.906;2023-02-17T05:29:03;99206.63;;;22.21;36.58
57574;BME280;63722;48.858;21.906;2023-02-17T05:31:28;99204.78;;;22.22;36.71
57574;BME280;63722;48.858;21.906;2023-02-17T05:33:54;99205.78;;;22.32;36.64
57574;BME280;63722;48.858;21.906;2023-02-17T05:36:20;99203.38;;;22.31;36.61
57574;BME280;63722;48.858;21.906;2023-02-17T05:38:45;99219.03;;;22.27;36.54
57574;BME280;63722;48.858;21.906;2023-02-17T05:41:14;99223.78;;;22.37;36.44
57574;BME280;63722;48.858;21.906;2023-02-17T05:43:39;99224.50;;;22.32;36.59
57574;BME280;63722;48.858;21.906;2023-02-17T05:46:05;99218.19;;;22.39;36.57
57574;BME280;63722;48.858;21.906;2023-02-17T05:48:31;99221.34;;;22.35;36.52
57574;BME280;63722;48.858;21.906;2023-02-17T05:50:57;99229.91;;;22.38;36.46
57574;BME280;63722;48.858;21.906;2023-02-17T05:53:22;99220.03;;;22.38;36.57
57574;BME280;63722;48.858;21.906;2023-02-17T05:55:47;99232.78;;;22.48;36.23
57574;BME280;63722;48.858;21.906;2023-02-17T05:58:13;99233.81;;;22.47;36.36
57574;BME280;63722;48.858;21.906;2023-02-17T06:00:39;99231.38;;;22.45;36.47
57574;BME280;63722;48.858;21.906;2023-02-17T06:03:04;99227.25;;;22.55;36.17
57574;BME280;63722;48.858;21.906;2023-02-17T06:05:29;99232.78;;;22.48;36.30
57574;BME280;63722;48.858;21.906;2023-02-17T06:07:55;99232.28;;;22.51;36.37
57574;BME280;63722;48.858;21.906;2023-02-17T06:10:20;99222.63;;;22.50;36.26
57574;BME280;63722;48.858;21.906;2023-02-17T06:12:45;99222.56;;;22.62;36.01
57574;BME280;63722;48.858;21.906;2023-02-17T06:15:11;99226.53;;;22.59;36.25
57574;BME280;63722;48.858;21.906;2023-02-17T06:17:36;99228.63;;;22.57;36.40
57574;BME280;63722;48.858;21.906;2023-02-17T06:20:02;99230.16;;;22.53;36.21
57574;BME280;63722;48.858;21.906;2023-02-17T06:22:28;99232.19;;;22.46;36.33
57574;BME280;63722;48.858;21.906;2023-02-17T06:24:53;99212.19;;;22.03;33.77
57574;BME280;63722;48.858;21.906;2023-02-17T06:27:19;99207.38;;;20.59;28.58
57574;BME280;63722;48.858;21.906;2023-02-17T06:29:44;99215.97;;;20.97;35.24
57574;BME280;63722;48.858;21.906;2023-02-17T06:32:09;99224.47;;;21.34;34.75
57574;BME280;63722;48.858;21.906;2023-02-17T06:34:35;99218.78;;;21.54;34.87
57574;BME280;63722;48.858;21.906;2023-02-17T06:37:00;99211.16;;;21.75;34.65
57574;BME280;63722;48.858;21.906;2023-02-17T06:39:26;99206.69;;;21.92;35.14
57574;BME280;63722;48.858;21.906;2023-02-17T06:41:51;99208.41;;;21.98;35.54
57574;BME280;63722;48.858;21.906;2023-02-17T06:44:16;99205.72;;;21.98;35.47
57574;BME280;63722;48.858;21.906;2023-02-17T06:46:42;99213.25;;;22.02;35.37
57574;BME280;63722;48.858;21.906;2023-02-17T06:49:10;99214.97;;;22.08;35.62
57574;BME280;63722;48.858;21.906;2023-02-17T06:51:35;99213.53;;;22.17;35.31
57574;BME280;63722;48.858;21.906;2023-02-17T06:54:01;99216.31;;;22.10;35.31
57574;BME280;63722;48.858;21.906;2023-02-17T06:56:26;99216.03;;;22.24;35.39
57574;BME280;63722;48.858;21.906;2023-02-17T06:58:52;99209.19;;;22.45;34.88
57574;BME280;63722;48.858;21.906;2023-02-17T07:01:25;99213.09;;;22.54;34.93
57574;BME280;63722;48.858;21.906;2023-02-17T07:03:54;99214.53;;;22.45;34.96
57574;BME280;63722;48.858;21.906;2023-02-17T07:06:20;99218.69;;;22.35;35.09
57574;BME280;63722;48.858;21.906;2023-02-17T07:08:45;99208.22;;;22.51;35.27
57574;BME280;63722;48.858;21.906;2023-02-17T07:11:13;99204.97;;;22.49;35.02
57574;BME280;63722;48.858;21.906;2023-02-17T07:13:39;99201.72;;;22.64;34.99
57574;BME280;63722;48.858;21.906;2023-02-17T07:16:05;99203.91;;;22.67;34.82
57574;BME280;63722;48.858;21.906;2023-02-17T07:18:31;99209.19;;;22.62;35.12
57574;BME280;63722;48.858;21.906;2023-02-17T07:20:56;99200.13;;;22.46;35.16
57574;BME280;63722;48.858;21.906;2023-02-17T07:23:22;99204.34;;;22.42;35.71
57574;BME280;63722;48.858;21.906;2023-02-17T07:25:47;99206.19;;;22.41;36.05
57574;BME280;63722;48.858;21.906;2023-02-17T07:28:13;99208.63;;;22.43;36.25
57574;BME280;63722;48.858;21.906;2023-02-17T07:30:39;99208.38;;;22.61;36.56
57574;BME280;63722;48.858;21.906;2023-02-17T07:33:05;99200.94;;;22.63;37.43
57574;BME280;63722;48.858;21.906;2023-02-17T07:35:31;99195.91;;;22.67;37.62
57574;BME280;63722;48.858;21.906;2023-02-17T07:37:57;99197.84;;;22.71;37.29
57574;BME280;63722;48.858;21.906;2023-02-17T07:40:23;99197.03;;;22.71;37.81
57574;BME280;63722;48.858;21.906;2023-02-17T07:42:49;99193.53;;;22.70;37.74
57574;BME280;63722;48.858;21.906;2023-02-17T07:45:14;99194.66;;;22.75;37.79
57574;BME280;63722;48.858;21.906;2023-02-17T07:47:40;99204.56;;;22.74;38.22
57574;BME280;63722;48.858;21.906;2023-02-17T07:50:06;99206.31;;;22.85;38.11
57574;BME280;63722;48.858;21.906;2023-02-17T07:52:32;99199.84;;;22.81;38.23
57574;BME280;63722;48.858;21.906;2023-02-17T07:54:57;99199.84;;;22.81;38.44
57574;BME280;63722;48.858;21.906;2023-02-17T07:57:23;99206.25;;;22.80;38.53
57574;BME280;63722;48.858;21.906;2023-02-17T07:59:48;99202.13;;;22.89;38.59
57574;BME280;63722;48.858;21.906;2023-02-17T08:02:14;99207.69;;;22.88;38.47
57574;BME280;63722;48.858;21.906;2023-02-17T08:04:39;99203.41;;;22.87;38.68
57574;BME280;63722;48.858;21.906;2023-02-17T08:07:04;99208.25;;;22.90;38.77
57574;BME280;63722;48.858;21.906;2023-02-17T08:09:30;99205.59;;;22.90;38.79
57574;BME280;63722;48.858;21.906;2023-02-17T08:12:15;99201.63;;;22.93;38.92
57574;BME280;63722;48.858;21.906;2023-02-17T08:15:00;99204.50;;;23.08;38.67
57574;BME280;63722;48.858;21.906;2023-02-17T08:17:27;99210.59;;;23.03;39.13
57574;BME280;63722;48.858;21.906;2023-02-17T08:19:53;99221.78;;;23.00;39.22
57574;BME280;63722;48.858;21.906;2023-02-17T08:22:19;99232.06;;;23.09;39.31
57574;BME280;63722;48.858;21.906;2023-02-17T08:24:45;99222.41;;;23.07;38.98
57574;BME280;63722;48.858;21.906;2023-02-17T08:27:10;99228.16;;;23.16;39.11
57574;BME280;63722;48.858;21.906;2023-02-17T08:29:37;99226.16;;;23.06;39.54
57574;BME280;63722;48.858;21.906;2023-02-17T08:32:03;99226.19;;;23.29;39.26
57574;BME280;63722;48.858;21.906;2023-02-17T08:34:28;99231.34;;;23.35;39.16
57574;BME280;63722;48.858;21.906;2023-02-17T08:36:58;99222.13;;;23.26;36.10
57574;BME280;63722;48.858;21.906;2023-02-17T08:39:23;99209.44;;;23.38;38.03
57574;BME280;63722;48.858;21.906;2023-02-17T08:41:50;99212.50;;;23.25;38.37
57574;BME280;63722;48.858;21.906;2023-02-17T08:44:17;99203.41;;;23.26;38.74
57574;BME280;63722;48.858;21.906;2023-02-17T08:46:43;99212.06;;;23.33;38.42
57574;BME280;63722;48.858;21.906;2023-02-17T08:49:09;99219.66;;;23.41;38.28
57574;BME280;63722;48.858;21.906;2023-02-17T08:51:35;99220.59;;;23.30;38.62
57574;BME280;63722;48.858;21.906;2023-02-17T08:54:03;99228.16;;;23.38;38.68
57574;BME280;63722;48.858;21.906;2023-02-17T08:56:31;99212.69;;;23.40;38.92
57574;BME280;63722;48.858;21.906;2023-02-17T08:58:56;99220.53;;;23.47;38.70
57574;BME280;63722;48.858;21.906;2023-02-17T09:01:22;99216.31;;;23.51;38.73
57574;BME280;63722;48.858;21.906;2023-02-17T09:03:49;99213.28;;;23.48;38.78
57574;BME280;63722;48.858;21.906;2023-02-17T09:06:15;99207.94;;;23.48;39.10
57574;BME280;63722;48.858;21.906;2023-02-17T09:08:41;99202.84;;;23.46;39.06
57574;BME280;63722;48.858;21.906;2023-02-17T09:11:08;99197.34;;;23.58;39.08
57574;BME280;63722;48.858;21.906;2023-02-17T09:13:34;99199.91;;;23.48;39.46
57574;BME280;63722;48.858;21.906;2023-02-17T09:15:59;99181.25;;;23.53;39.22
57574;BME280;63722;48.858;21.906;2023-02-17T09:18:25;99181.25;;;23.53;38.97
57574;BME280;63722;48.858;21.906;2023-02-17T09:20:50;99171.28;;;23.26;38.81
57574;BME280;63722;48.858;21.906;2023-02-17T09:23:17;99174.72;;;23.21;38.28
57574;BME280;63722;48.858;21.906;2023-02-17T09:25:43;99172.47;;;23.13;38.18
57574;BME280;63722;48.858;21.906;2023-02-17T09:28:09;99169.06;;;23.18;37.97
57574;BME280;63722;48.858;21.906;2023-02-17T09:30:35;99156.88;;;23.27;37.66
57574;BME280;63722;48.858;21.906;2023-02-17T09:33:01;99158.28;;;23.35;38.09
57574;BME280;63722;48.858;21.906;2023-02-17T09:35:26;99162.16;;;23.44;38.01
57574;BME280;63722;48.858;21.906;2023-02-17T09:37:52;99166.75;;;23.49;38.00
57574;BME280;63722;48.858;21.906;2023-02-17T09:40:45;99167.78;;;23.48;38.18
57574;BME280;63722;48.858;21.906;2023-02-17T09:43:25;99163.53;;;23.47;38.42
57574;BME280;63722;48.858;21.906;2023-02-17T09:45:57;99163.31;;;23.53;38.35
57574;BME280;63722;48.858;21.906;2023-02-17T09:48:26;99163.59;;;23.57;38.44
57574;BME280;63722;48.858;21.906;2023-02-17T09:50:59;99168.72;;;23.58;38.43
57574;BME280;63722;48.858;21.906;2023-02-17T09:56:00;99150.22;;;23.57;38.79
57574;BME280;63722;48.858;21.906;2023-02-17T10:00:57;99166.75;;;23.76;38.88
57574;BME280;63722;48.858;21.906;2023-02-17T10:03:36;99154.69;;;23.73;38.80
57574;BME280;63722;48.858;21.906;2023-02-17T10:08:53;99159.75;;;23.70;38.74
57574;BME280;63722;48.858;21.906;2023-02-17T10:13:52;99139.50;;;23.57;38.98
57574;BME280;63722;48.858;21.906;2023-02-17T10:16:27;99136.84;;;23.57;39.01
57574;BME280;63722;48.858;21.906;2023-02-17T10:19:00;99140.09;;;23.59;39.05
57574;BME280;63722;48.858;21.906;2023-02-17T10:21:37;99130.94;;;23.55;39.14
57574;BME280;63722;48.858;21.906;2023-02-17T10:24:04;99135.13;;;23.46;39.18
57574;BME280;63722;48.858;21.906;2023-02-17T10:27:10;99128.75;;;23.52;39.20
57574;BME280;63722;48.858;21.906;2023-02-17T10:32:26;99109.41;;;23.45;38.50
57574;BME280;63722;48.858;21.906;2023-02-17T10:35:15;99097.94;;;23.49;39.46
57574;BME280;63722;48.858;21.906;2023-02-17T10:37:49;99088.00;;;23.45;39.45
57574;BME280;63722;48.858;21.906;2023-02-17T10:40:24;99069.06;;;23.51;39.65
57574;BME280;63722;48.858;21.906;2023-02-17T10:42:54;99057.91;;;23.59;39.70
57574;BME280;63722;48.858;21.906;2023-02-17T10:48:07;99041.56;;;23.56;40.10
57574;BME280;63722;48.858;21.906;2023-02-17T10:50:34;99038.00;;;23.50;40.21
57574;BME280;63722;48.858;21.906;2023-02-17T10:53:14;99036.78;;;23.63;40.07
57574;BME280;63722;48.858;21.906;2023-02-17T10:56:16;99028.47;;;23.65;40.16
57574;BME280;63722;48.858;21.906;2023-02-17T10:58:57;99035.63;;;23.54;40.08
57574;BME280;63722;48.858;21.906;2023-02-17T11:01:26;99029.44;;;23.48;39.79
57574;BME280;63722;48.858;21.906;2023-02-17T11:06:25;99035.19;;;23.35;40.59
57574;BME280;63722;48.858;21.906;2023-02-17T11:08:58;99043.06;;;23.47;40.06
57574;BME280;63722;48.858;21.906;2023-02-17T11:11:27;99034.47;;;23.45;40.16
57574;BME280;63722;48.858;21.906;2023-02-17T11:19:03;99039.38;;;23.26;39.51
57574;BME280;63722;48.858;21.906;2023-02-17T11:21:29;99033.53;;;23.29;39.38
57574;BME280;63722;48.858;21.906;2023-02-17T11:23:58;99035.09;;;23.24;39.02
57574;BME280;63722;48.858;21.906;2023-02-17T11:26:26;99026.66;;;23.38;39.49
57574;BME280;63722;48.858;21.906;2023-02-17T11:28:52;99018.34;;;23.34;38.95
57574;BME280;63722;48.858;21.906;2023-02-17T11:31:29;99027.53;;;23.44;38.99
57574;BME280;63722;48.858;21.906;2023-02-17T11:33:55;99021.09;;;23.45;38.90
57574;BME280;63722;48.858;21.906;2023-02-17T11:36:29;99018.41;;;23.45;38.52
57574;BME280;63722;48.858;21.906;2023-02-17T11:38:55;99015.09;;;23.32;38.78
57574;BME280;63722;48.858;21.906;2023-02-17T11:41:21;99014.50;;;23.25;38.36
57574;BME280;63722;48.858;21.906;2023-02-17T11:43:57;99023.09;;;23.27;38.13
57574;BME280;63722;48.858;21.906;2023-02-17T11:46:34;99015.84;;;23.28;37.72
57574;BME280;63722;48.858;21.906;2023-02-17T12:02:19;98974.81;;;23.17;37.77
57574;BME280;63722;48.858;21.906;2023-02-17T12:15:53;98930.03;;;23.34;37.09
57574;BME280;63722;48.858;21.906;2023-02-17T12:21:04;98919.84;;;23.31;37.71
57574;BME280;63722;48.858;21.906;2023-02-17T12:29:08;98915.13;;;23.44;37.24
57574;BME280;63722;48.858;21.906;2023-02-17T12:36:50;98921.41;;;23.27;37.03
57574;BME280;63722;48.858;21.906;2023-02-17T12:39:21;98911.66;;;23.48;37.38
57574;BME280;63722;48.858;21.906;2023-02-17T12:41:55;98921.56;;;23.48;36.91
57574;BME280;63722;48.858;21.906;2023-02-17T12:44:27;98927.41;;;23.45;37.14
57574;BME280;63722;48.858;21.906;2023-02-17T12:47:03;98916.66;;;23.34;37.05
57574;BME280;63722;48.858;21.906;2023-02-17T12:49:36;98924.63;;;23.29;36.90
57574;BME280;63722;48.858;21.906;2023-02-17T12:52:17;98916.66;;;23.34;36.83
57574;BME280;63722;48.858;21.906;2023-02-17T12:54:51;98918.72;;;23.27;36.74
57574;BME280;63722;48.858;21.906;2023-02-17T12:57:26;98915.81;;;23.29;37.20
57574;BME280;63722;48.858;21.906;2023-02-17T12:59:57;98909.59;;;23.23;37.09
57574;BME280;63722;48.858;21.906;2023-02-17T13:02:24;98901.56;;;23.23;36.88
57574;BME280;63722;48.858;21.906;2023-02-17T13:04:52;98909.16;;;23.36;37.23
57574;BME280;63722;48.858;21.906;2023-02-17T13:07:38;98911.97;;;23.52;37.18
57574;BME280;63722;48.858;21.906;2023-02-17T13:10:06;98913.09;;;23.61;37.06
57574;BME280;63722;48.858;21.906;2023-02-17T13:12:36;98913.41;;;23.70;37.14
57574;BME280;63722;48.858;21.906;2023-02-17T13:15:06;98910.91;;;23.58;37.54
57574;BME280;63722;48.858;21.906;2023-02-17T13:22:41;98888.50;;;23.27;35.31
57574;BME280;63722;48.858;21.906;2023-02-17T13:25:10;98896.66;;;23.10;35.61
57574;BME280;63722;48.858;21.906;2023-02-17T13:27:38;98889.13;;;23.06;34.92
57574;BME280;63722;48.858;21.906;2023-02-17T13:30:27;98895.13;;;22.92;35.01
57574;BME280;63722;48.858;21.906;2023-02-17T13:35:49;98876.06;;;22.83;34.13
57574;BME280;63722;48.858;21.906;2023-02-17T13:38:57;98875.09;;;22.94;34.09
57574;BME280;63722;48.858;21.906;2023-02-17T13:41:24;98870.47;;;22.84;34.04
57574;BME280;63722;48.858;21.906;2023-02-17T13:43:50;98867.78;;;22.84;33.53
57574;BME280;63722;48.858;21.906;2023-02-17T13:46:21;98861.09;;;22.82;34.01
57574;BME280;63722;48.858;21.906;2023-02-17T13:48:58;98856.56;;;22.82;35.34
57574;BME280;63722;48.858;21.906;2023-02-17T13:51:26;98849.06;;;22.84;35.14
57574;BME280;63722;48.858;21.906;2023-02-17T13:53:52;98844.53;;;22.85;34.19
57574;BME280;63722;48.858;21.906;2023-02-17T13:56:25;98837.28;;;22.80;33.61
57574;BME280;63722;48.858;21.906;2023-02-17T13:58:51;98848.66;;;22.65;33.28
57574;BME280;63722;48.858;21.906;2023-02-17T14:01:20;98851.97;;;22.78;33.35
57574;BME280;63722;48.858;21.906;2023-02-17T14:03:54;98858.34;;;22.77;32.88
57574;BME280;63722;48.858;21.906;2023-02-17T14:06:29;98861.50;;;22.68;32.88
57574;BME280;63722;48.858;21.906;2023-02-17T14:08:55;98852.38;;;22.64;32.65
57574;BME280;63722;48.858;21.906;2023-02-17T14:11:23;98847.28;;;22.63;32.85
57574;BME280;63722;48.858;21.906;2023-02-17T14:13:51;98843.75;;;22.57;32.76
57574;BME280;63722;48.858;21.906;2023-02-17T14:16:36;98839.00;;;22.64;32.55
57574;BME280;63722;48.858;21.906;2023-02-17T14:21:40;98826.88;;;22.51;32.51
57574;BME280;63722;48.858;21.906;2023-02-17T14:24:06;98824.94;;;22.47;32.48
57574;BME280;63722;48.858;21.906;2023-02-17T14:26:38;98838.09;;;22.53;32.51
57574;BME280;63722;48.858;21.906;2023-02-17T14:29:08;98832.97;;;22.47;32.08
57574;BME280;63722;48.858;21.906;2023-02-17T14:31:46;98835.09;;;22.45;32.23
57574;BME280;63722;48.858;21.906;2023-02-17T14:34:24;98829.25;;;22.48;32.09
57574;BME280;63722;48.858;21.906;2023-02-17T14:36:50;98831.66;;;22.49;32.65
57574;BME280;63722;48.858;21.906;2023-02-17T14:39:15;98817.53;;;22.54;32.72